MSC Orchestra — 3EJF3 — position and weather

sailwx.info

Track history (hours):
 
Tides and Currents Weather Stations Pressure Air Temp Water Temp Dewpoint Dewpoint Depression Visibility Wind Speed Wind Dir Waves Ship Positions

MSC Orchestra

Last reported at 2016-Sep-29 15:32 UTC. Time now 2016-Sep-30 03:18 UTC.
Position N 37°23' E 023°38'.

Length 294 m; draft 7.8 m.

Type: Ship. MMSI: 372497000.

Date/timePositionNaut miles runAvg speedWind from/ knotsBaromVisibWave heightAir tempDewpointWater temp
2016-Sep-29 15:32N 37°23' E 023°38'2020.8
2016-Sep-29 14:33N 37°44' E 023°40'1311.7
2016-Sep-29 13:28N 37°56' E 023°37'0 0.0
2016-Sep-29 08:32N 37°56' E 023°37'0 0.0
2016-Sep-29 07:32N 37°56' E 023°37'29 4.2
2016-Sep-29 00:33N 37°28' E 023°48'  
2016-Sep-26 00:33N 44°10' E 013°60'6421.4
2016-Sep-25 21:33N 45°02' E 013°07'4210.4
2016-Sep-25 17:34N 45°26' E 012°19'0 0.0
2016-Sep-25 16:33N 45°26' E 012°19'0 0.0
2016-Sep-25 15:34N 45°26' E 012°19'0 0.0
2016-Sep-25 14:34N 45°26' E 012°19'0 0.0
2016-Sep-25 12:33N 45°26' E 012°19'0 0.0
2016-Sep-25 11:34N 45°26' E 012°19'0 0.0
2016-Sep-25 10:33N 45°26' E 012°19'0 0.0
2016-Sep-25 09:33N 45°26' E 012°19'0 0.0
2016-Sep-25 07:34N 45°26' E 012°19'20 6.7
2016-Sep-25 04:33N 45°17' E 012°44'7819.4
2016-Sep-25 00:34N 44°19' E 013°57'23119.2
2016-Sep-24 12:33N 42°26' E 018°34'9 4.4
2016-Sep-24 10:32N 42°26' E 018°46'0 0.0
2016-Sep-24 09:32N 42°26' E 018°46'5 0.8
2016-Sep-24 03:33N 42°27' E 018°39'7 7.0
2016-Sep-24 02:33N 42°21' E 018°34'1515.2
2016-Sep-24 01:33N 42°06' E 018°38'1615.8
2016-Sep-24 00:31N 41°50' E 018°43'325 9.0
2016-Sep-22 12:33N 37°56' E 023°38'0 0.0
2016-Sep-22 04:32N 37°56' E 023°38'0 0.0
2016-Sep-22 03:32N 37°56' E 023°38'10 3.3
2016-Sep-22 00:33N 37°47' E 023°41'1010.1
2016-Sep-21 23:34N 37°38' E 023°46'1211.6
2016-Sep-21 22:33N 37°26' E 023°48'  
Track history (hours):
 
Tides and Currents Weather Stations Pressure Air Temp Water Temp Dewpoint Dewpoint Depression Visibility Wind Speed Wind Dir Waves Ship Positions

MSC Orchestra

Last reported at 2016-Sep-29 15:32 UTC. Time now 2016-Sep-30 03:19 UTC.
Position N 37°23' E 023°38'.

Length 294 m; draft 7.8 m.

Type: Ship. MMSI: 372497000.

Date/timePositionNaut miles runAvg speedWind from/ knotsBaromVisibWave heightAir tempDewpointWater temp
2016-Sep-29 15:32N 37°23' E 023°38'2020.8
2016-Sep-29 14:33N 37°44' E 023°40'1311.7
2016-Sep-29 13:28N 37°56' E 023°37'0 0.0
2016-Sep-29 08:32N 37°56' E 023°37'0 0.0
2016-Sep-29 07:32N 37°56' E 023°37'29 4.2
2016-Sep-29 00:33N 37°28' E 023°48'  
2016-Sep-26 00:33N 44°10' E 013°60'6421.4
2016-Sep-25 21:33N 45°02' E 013°07'4210.4
2016-Sep-25 17:34N 45°26' E 012°19'0 0.0
2016-Sep-25 16:33N 45°26' E 012°19'0 0.0
2016-Sep-25 15:34N 45°26' E 012°19'0 0.0
2016-Sep-25 14:34N 45°26' E 012°19'0 0.0
2016-Sep-25 12:33N 45°26' E 012°19'0 0.0
2016-Sep-25 11:34N 45°26' E 012°19'0 0.0
2016-Sep-25 10:33N 45°26' E 012°19'0 0.0
2016-Sep-25 09:33N 45°26' E 012°19'0 0.0
2016-Sep-25 07:34N 45°26' E 012°19'20 6.7
2016-Sep-25 04:33N 45°17' E 012°44'7819.4
2016-Sep-25 00:34N 44°19' E 013°57'23119.2
2016-Sep-24 12:33N 42°26' E 018°34'9 4.4
2016-Sep-24 10:32N 42°26' E 018°46'0 0.0
2016-Sep-24 09:32N 42°26' E 018°46'5 0.8
2016-Sep-24 03:33N 42°27' E 018°39'7 7.0
2016-Sep-24 02:33N 42°21' E 018°34'1515.2
2016-Sep-24 01:33N 42°06' E 018°38'1615.8
2016-Sep-24 00:31N 41°50' E 018°43'325 9.0
2016-Sep-22 12:33N 37°56' E 023°38'0 0.0
2016-Sep-22 04:32N 37°56' E 023°38'0 0.0
2016-Sep-22 03:32N 37°56' E 023°38'10 3.3
2016-Sep-22 00:33N 37°47' E 023°41'1010.1
2016-Sep-21 23:34N 37°38' E 023°46'1211.6
2016-Sep-21 22:33N 37°26' E 023°48'  

Dump ship's entire track history